sensor_id;sensor_type;location;lat;lon;timestamp;P1;durP1;ratioP1;P2;durP2;ratioP2
4198;SDS011;2113;50.946;14.610;2023-12-04T00:01:25;21.05;;;9.43;;
4198;SDS011;2113;50.946;14.610;2023-12-04T00:03:54;22.02;;;11.18;;
4198;SDS011;2113;50.946;14.610;2023-12-04T00:06:24;15.80;;;7.65;;
4198;SDS011;2113;50.946;14.610;2023-12-04T00:08:52;25.45;;;11.25;;
4198;SDS011;2113;50.946;14.610;2023-12-04T00:11:20;22.50;;;10.02;;
4198;SDS011;2113;50.946;14.610;2023-12-04T00:13:48;25.83;;;10.35;;
4198;SDS011;2113;50.946;14.610;2023-12-04T00:16:16;25.55;;;9.45;;
4198;SDS011;2113;50.946;14.610;2023-12-04T00:18:44;23.48;;;10.43;;
4198;SDS011;2113;50.946;14.610;2023-12-04T00:21:13;23.40;;;10.50;;
4198;SDS011;2113;50.946;14.610;2023-12-04T00:23:42;23.02;;;11.02;;
4198;SDS011;2113;50.946;14.610;2023-12-04T00:26:11;16.20;;;8.45;;
4198;SDS011;2113;50.946;14.610;2023-12-04T00:28:40;19.70;;;8.80;;
4198;SDS011;2113;50.946;14.610;2023-12-04T00:31:08;22.98;;;10.82;;
4198;SDS011;2113;50.946;14.610;2023-12-04T00:33:37;24.05;;;8.88;;
4198;SDS011;2113;50.946;14.610;2023-12-04T00:36:05;26.45;;;11.73;;
4198;SDS011;2113;50.946;14.610;2023-12-04T00:38:34;24.50;;;11.13;;
4198;SDS011;2113;50.946;14.610;2023-12-04T00:41:04;26.88;;;11.93;;
4198;SDS011;2113;50.946;14.610;2023-12-04T00:43:32;24.95;;;10.57;;
4198;SDS011;2113;50.946;14.610;2023-12-04T00:46:00;25.58;;;10.40;;
4198;SDS011;2113;50.946;14.610;2023-12-04T00:48:28;31.00;;;12.15;;
4198;SDS011;2113;50.946;14.610;2023-12-04T00:50:57;21.42;;;9.95;;
4198;SDS011;2113;50.946;14.610;2023-12-04T00:53:25;23.42;;;10.63;;
4198;SDS011;2113;50.946;14.610;2023-12-04T00:55:53;24.60;;;8.88;;
4198;SDS011;2113;50.946;14.610;2023-12-04T00:58:23;15.23;;;8.50;;
4198;SDS011;2113;50.946;14.610;2023-12-04T01:00:51;17.65;;;8.98;;
4198;SDS011;2113;50.946;14.610;2023-12-04T01:03:19;22.55;;;10.57;;
4198;SDS011;2113;50.946;14.610;2023-12-04T01:05:47;27.77;;;10.90;;
4198;SDS011;2113;50.946;14.610;2023-12-04T01:08:15;27.35;;;9.73;;
4198;SDS011;2113;50.946;14.610;2023-12-04T01:10:44;43.22;;;14.75;;
4198;SDS011;2113;50.946;14.610;2023-12-04T01:13:12;25.00;;;10.70;;
4198;SDS011;2113;50.946;14.610;2023-12-04T01:15:45;23.88;;;9.77;;
4198;SDS011;2113;50.946;14.610;2023-12-04T01:18:15;28.65;;;12.15;;
4198;SDS011;2113;50.946;14.610;2023-12-04T01:26:29;23.98;;;10.55;;
4198;SDS011;2113;50.946;14.610;2023-12-04T01:29:00;27.30;;;11.82;;
4198;SDS011;2113;50.946;14.610;2023-12-04T01:31:31;19.88;;;9.85;;
4198;SDS011;2113;50.946;14.610;2023-12-04T01:33:59;30.73;;;11.27;;
4198;SDS011;2113;50.946;14.610;2023-12-04T01:36:27;28.83;;;11.82;;
4198;SDS011;2113;50.946;14.610;2023-12-04T01:38:55;21.88;;;10.55;;
4198;SDS011;2113;50.946;14.610;2023-12-04T01:41:24;21.02;;;8.23;;
4198;SDS011;2113;50.946;14.610;2023-12-04T01:43:52;22.25;;;9.40;;
4198;SDS011;2113;50.946;14.610;2023-12-04T01:46:20;17.40;;;9.32;;
4198;SDS011;2113;50.946;14.610;2023-12-04T01:48:50;22.70;;;10.20;;
4198;SDS011;2113;50.946;14.610;2023-12-04T01:51:19;21.88;;;9.82;;
4198;SDS011;2113;50.946;14.610;2023-12-04T01:53:48;22.83;;;9.88;;
4198;SDS011;2113;50.946;14.610;2023-12-04T01:56:17;32.55;;;12.90;;
4198;SDS011;2113;50.946;14.610;2023-12-04T01:58:47;22.67;;;10.70;;
4198;SDS011;2113;50.946;14.610;2023-12-04T02:01:15;26.42;;;10.32;;
4198;SDS011;2113;50.946;14.610;2023-12-04T02:03:44;17.80;;;6.78;;
4198;SDS011;2113;50.946;14.610;2023-12-04T02:06:13;18.02;;;6.22;;
4198;SDS011;2113;50.946;14.610;2023-12-04T02:08:44;21.45;;;8.52;;
4198;SDS011;2113;50.946;14.610;2023-12-04T02:11:14;14.98;;;7.95;;
4198;SDS011;2113;50.946;14.610;2023-12-04T02:13:42;18.48;;;10.55;;
4198;SDS011;2113;50.946;14.610;2023-12-04T02:16:10;23.92;;;10.02;;
4198;SDS011;2113;50.946;14.610;2023-12-04T02:18:41;21.83;;;9.52;;
4198;SDS011;2113;50.946;14.610;2023-12-04T02:21:11;20.35;;;9.52;;
4198;SDS011;2113;50.946;14.610;2023-12-04T02:23:40;15.48;;;8.15;;
4198;SDS011;2113;50.946;14.610;2023-12-04T02:26:10;22.17;;;10.65;;
4198;SDS011;2113;50.946;14.610;2023-12-04T02:28:45;17.73;;;10.73;;
4198;SDS011;2113;50.946;14.610;2023-12-04T02:31:17;22.15;;;8.80;;
4198;SDS011;2113;50.946;14.610;2023-12-04T02:33:46;27.58;;;11.45;;
4198;SDS011;2113;50.946;14.610;2023-12-04T02:36:17;23.33;;;10.32;;
4198;SDS011;2113;50.946;14.610;2023-12-04T02:38:47;22.95;;;12.20;;
4198;SDS011;2113;50.946;14.610;2023-12-04T02:41:17;26.85;;;11.55;;
4198;SDS011;2113;50.946;14.610;2023-12-04T02:43:45;27.30;;;12.40;;
4198;SDS011;2113;50.946;14.610;2023-12-04T02:46:14;29.65;;;12.93;;
4198;SDS011;2113;50.946;14.610;2023-12-04T02:48:42;18.92;;;10.25;;
4198;SDS011;2113;50.946;14.610;2023-12-04T02:51:10;30.00;;;12.05;;
4198;SDS011;2113;50.946;14.610;2023-12-04T02:53:38;37.78;;;10.88;;
4198;SDS011;2113;50.946;14.610;2023-12-04T02:56:07;19.15;;;8.57;;
4198;SDS011;2113;50.946;14.610;2023-12-04T02:58:37;21.63;;;10.60;;
4198;SDS011;2113;50.946;14.610;2023-12-04T03:01:05;22.20;;;9.73;;
4198;SDS011;2113;50.946;14.610;2023-12-04T03:03:34;26.98;;;10.85;;
4198;SDS011;2113;50.946;14.610;2023-12-04T03:06:03;16.92;;;7.90;;
4198;SDS011;2113;50.946;14.610;2023-12-04T03:08:31;23.33;;;12.02;;
4198;SDS011;2113;50.946;14.610;2023-12-04T03:11:01;28.33;;;13.30;;
4198;SDS011;2113;50.946;14.610;2023-12-04T03:13:29;23.73;;;9.63;;
4198;SDS011;2113;50.946;14.610;2023-12-04T03:15:59;19.35;;;10.18;;
4198;SDS011;2113;50.946;14.610;2023-12-04T03:18:27;25.92;;;12.60;;
4198;SDS011;2113;50.946;14.610;2023-12-04T03:20:55;28.90;;;13.45;;
4198;SDS011;2113;50.946;14.610;2023-12-04T03:23:23;18.48;;;8.38;;
4198;SDS011;2113;50.946;14.610;2023-12-04T03:25:52;25.35;;;10.27;;
4198;SDS011;2113;50.946;14.610;2023-12-04T03:28:20;23.45;;;10.02;;
4198;SDS011;2113;50.946;14.610;2023-12-04T03:30:49;22.98;;;9.77;;
4198;SDS011;2113;50.946;14.610;2023-12-04T03:33:18;22.38;;;10.95;;
4198;SDS011;2113;50.946;14.610;2023-12-04T03:35:47;20.42;;;11.07;;
4198;SDS011;2113;50.946;14.610;2023-12-04T03:38:15;22.90;;;9.07;;
4198;SDS011;2113;50.946;14.610;2023-12-04T03:40:43;25.23;;;9.70;;
4198;SDS011;2113;50.946;14.610;2023-12-04T03:43:11;22.45;;;9.65;;
4198;SDS011;2113;50.946;14.610;2023-12-04T03:45:39;19.77;;;9.25;;
4198;SDS011;2113;50.946;14.610;2023-12-04T03:48:07;18.20;;;8.18;;
4198;SDS011;2113;50.946;14.610;2023-12-04T03:50:37;23.23;;;8.63;;
4198;SDS011;2113;50.946;14.610;2023-12-04T03:53:05;23.50;;;9.98;;
4198;SDS011;2113;50.946;14.610;2023-12-04T03:55:34;23.98;;;9.25;;
4198;SDS011;2113;50.946;14.610;2023-12-04T03:58:02;21.92;;;8.23;;
4198;SDS011;2113;50.946;14.610;2023-12-04T04:00:31;24.80;;;9.52;;
4198;SDS011;2113;50.946;14.610;2023-12-04T04:02:59;19.27;;;8.68;;
4198;SDS011;2113;50.946;14.610;2023-12-04T04:05:28;15.23;;;8.63;;
4198;SDS011;2113;50.946;14.610;2023-12-04T04:07:58;16.05;;;8.32;;
4198;SDS011;2113;50.946;14.610;2023-12-04T04:10:26;20.10;;;9.23;;
4198;SDS011;2113;50.946;14.610;2023-12-04T04:12:54;19.02;;;8.07;;
4198;SDS011;2113;50.946;14.610;2023-12-04T04:15:23;22.67;;;9.32;;
4198;SDS011;2113;50.946;14.610;2023-12-04T04:17:51;22.98;;;9.27;;
4198;SDS011;2113;50.946;14.610;2023-12-04T04:20:19;18.17;;;9.00;;
4198;SDS011;2113;50.946;14.610;2023-12-04T04:22:47;25.88;;;9.90;;
4198;SDS011;2113;50.946;14.610;2023-12-04T04:25:17;18.38;;;9.00;;
4198;SDS011;2113;50.946;14.610;2023-12-04T04:27:45;17.25;;;8.35;;
4198;SDS011;2113;50.946;14.610;2023-12-04T04:30:13;20.30;;;9.27;;
4198;SDS011;2113;50.946;14.610;2023-12-04T04:32:43;19.27;;;8.82;;
4198;SDS011;2113;50.946;14.610;2023-12-04T04:35:11;29.27;;;12.15;;
4198;SDS011;2113;50.946;14.610;2023-12-04T04:37:39;25.23;;;10.80;;
4198;SDS011;2113;50.946;14.610;2023-12-04T04:40:12;23.33;;;10.23;;
4198;SDS011;2113;50.946;14.610;2023-12-04T04:42:41;28.85;;;9.80;;
4198;SDS011;2113;50.946;14.610;2023-12-04T04:45:11;26.65;;;12.18;;
4198;SDS011;2113;50.946;14.610;2023-12-04T04:47:39;18.67;;;8.95;;
4198;SDS011;2113;50.946;14.610;2023-12-04T04:50:07;28.73;;;13.70;;
4198;SDS011;2113;50.946;14.610;2023-12-04T04:52:36;28.73;;;12.30;;
4198;SDS011;2113;50.946;14.610;2023-12-04T04:55:04;15.15;;;7.65;;
4198;SDS011;2113;50.946;14.610;2023-12-04T04:57:33;19.25;;;10.60;;
4198;SDS011;2113;50.946;14.610;2023-12-04T05:00:03;16.52;;;8.88;;
4198;SDS011;2113;50.946;14.610;2023-12-04T05:02:32;19.67;;;8.95;;
4198;SDS011;2113;50.946;14.610;2023-12-04T05:05:02;20.95;;;10.18;;
4198;SDS011;2113;50.946;14.610;2023-12-04T05:07:31;27.10;;;11.68;;
4198;SDS011;2113;50.946;14.610;2023-12-04T05:09:59;17.95;;;11.63;;
4198;SDS011;2113;50.946;14.610;2023-12-04T05:12:29;17.50;;;11.00;;
4198;SDS011;2113;50.946;14.610;2023-12-04T05:14:58;20.80;;;9.20;;
4198;SDS011;2113;50.946;14.610;2023-12-04T05:17:28;22.05;;;8.98;;
4198;SDS011;2113;50.946;14.610;2023-12-04T05:19:56;23.90;;;11.02;;
4198;SDS011;2113;50.946;14.610;2023-12-04T05:22:24;19.13;;;9.75;;
4198;SDS011;2113;50.946;14.610;2023-12-04T05:24:52;23.98;;;10.38;;
4198;SDS011;2113;50.946;14.610;2023-12-04T05:27:20;23.20;;;12.80;;
4198;SDS011;2113;50.946;14.610;2023-12-04T05:29:49;29.63;;;12.90;;
4198;SDS011;2113;50.946;14.610;2023-12-04T05:32:18;26.05;;;8.88;;
4198;SDS011;2113;50.946;14.610;2023-12-04T05:34:48;23.45;;;9.05;;
4198;SDS011;2113;50.946;14.610;2023-12-04T05:37:17;21.55;;;10.77;;
4198;SDS011;2113;50.946;14.610;2023-12-04T05:39:45;23.13;;;11.45;;
4198;SDS011;2113;50.946;14.610;2023-12-04T05:42:13;25.58;;;10.05;;
4198;SDS011;2113;50.946;14.610;2023-12-04T05:44:42;19.25;;;9.23;;
4198;SDS011;2113;50.946;14.610;2023-12-04T05:47:10;27.50;;;11.25;;
4198;SDS011;2113;50.946;14.610;2023-12-04T05:49:38;25.65;;;10.20;;
4198;SDS011;2113;50.946;14.610;2023-12-04T05:52:09;25.85;;;12.13;;
4198;SDS011;2113;50.946;14.610;2023-12-04T05:54:37;20.80;;;10.23;;
4198;SDS011;2113;50.946;14.610;2023-12-04T05:57:05;27.83;;;10.65;;
4198;SDS011;2113;50.946;14.610;2023-12-04T05:59:34;26.05;;;12.85;;
4198;SDS011;2113;50.946;14.610;2023-12-04T06:02:10;27.50;;;11.75;;
4198;SDS011;2113;50.946;14.610;2023-12-04T06:04:42;25.33;;;10.43;;
4198;SDS011;2113;50.946;14.610;2023-12-04T06:07:12;25.92;;;11.85;;
4198;SDS011;2113;50.946;14.610;2023-12-04T06:09:40;26.58;;;11.77;;
4198;SDS011;2113;50.946;14.610;2023-12-04T06:12:08;26.00;;;11.25;;
4198;SDS011;2113;50.946;14.610;2023-12-04T06:14:36;25.80;;;12.00;;
4198;SDS011;2113;50.946;14.610;2023-12-04T06:17:04;24.25;;;9.93;;
4198;SDS011;2113;50.946;14.610;2023-12-04T06:19:34;25.65;;;12.25;;
4198;SDS011;2113;50.946;14.610;2023-12-04T06:22:02;20.98;;;9.60;;
4198;SDS011;2113;50.946;14.610;2023-12-04T06:24:32;23.92;;;9.90;;
4198;SDS011;2113;50.946;14.610;2023-12-04T06:27:02;22.20;;;11.20;;
4198;SDS011;2113;50.946;14.610;2023-12-04T06:29:32;31.58;;;10.90;;
4198;SDS011;2113;50.946;14.610;2023-12-04T06:32:01;22.05;;;10.90;;
4198;SDS011;2113;50.946;14.610;2023-12-04T06:34:31;24.60;;;10.45;;
4198;SDS011;2113;50.946;14.610;2023-12-04T06:37:00;25.10;;;10.43;;
4198;SDS011;2113;50.946;14.610;2023-12-04T06:39:31;22.45;;;10.35;;
4198;SDS011;2113;50.946;14.610;2023-12-04T06:42:02;20.73;;;8.75;;
4198;SDS011;2113;50.946;14.610;2023-12-04T06:44:32;23.83;;;11.43;;
4198;SDS011;2113;50.946;14.610;2023-12-04T06:47:01;27.67;;;11.10;;
4198;SDS011;2113;50.946;14.610;2023-12-04T06:49:32;22.85;;;10.35;;
4198;SDS011;2113;50.946;14.610;2023-12-04T06:52:01;24.83;;;10.57;;
4198;SDS011;2113;50.946;14.610;2023-12-04T06:54:29;28.00;;;12.13;;
4198;SDS011;2113;50.946;14.610;2023-12-04T06:56:59;24.25;;;10.73;;
4198;SDS011;2113;50.946;14.610;2023-12-04T06:59:27;23.50;;;10.95;;
4198;SDS011;2113;50.946;14.610;2023-12-04T07:01:55;27.25;;;11.13;;
4198;SDS011;2113;50.946;14.610;2023-12-04T07:04:23;22.92;;;9.32;;
4198;SDS011;2113;50.946;14.610;2023-12-04T07:06:51;18.77;;;11.00;;
4198;SDS011;2113;50.946;14.610;2023-12-04T07:09:19;22.00;;;10.20;;
4198;SDS011;2113;50.946;14.610;2023-12-04T07:11:47;20.42;;;10.35;;
4198;SDS011;2113;50.946;14.610;2023-12-04T07:14:17;25.60;;;11.55;;
4198;SDS011;2113;50.946;14.610;2023-12-04T07:16:45;33.33;;;12.60;;
4198;SDS011;2113;50.946;14.610;2023-12-04T07:19:13;31.48;;;10.68;;
4198;SDS011;2113;50.946;14.610;2023-12-04T07:21:43;28.80;;;11.80;;
4198;SDS011;2113;50.946;14.610;2023-12-04T07:24:11;25.80;;;10.80;;
4198;SDS011;2113;50.946;14.610;2023-12-04T07:26:39;23.45;;;8.90;;
4198;SDS011;2113;50.946;14.610;2023-12-04T07:29:07;21.13;;;10.27;;
4198;SDS011;2113;50.946;14.610;2023-12-04T07:31:37;25.85;;;11.00;;
4198;SDS011;2113;50.946;14.610;2023-12-04T07:34:05;21.98;;;13.02;;
4198;SDS011;2113;50.946;14.610;2023-12-04T07:36:33;29.02;;;10.60;;
4198;SDS011;2113;50.946;14.610;2023-12-04T07:39:01;30.15;;;11.60;;
4198;SDS011;2113;50.946;14.610;2023-12-04T07:41:32;23.02;;;11.27;;
4198;SDS011;2113;50.946;14.610;2023-12-04T07:44:00;33.53;;;12.68;;
4198;SDS011;2113;50.946;14.610;2023-12-04T07:46:29;26.88;;;12.10;;
4198;SDS011;2113;50.946;14.610;2023-12-04T07:48:58;23.38;;;10.52;;
4198;SDS011;2113;50.946;14.610;2023-12-04T07:51:27;28.67;;;11.98;;
4198;SDS011;2113;50.946;14.610;2023-12-04T07:53:55;25.20;;;11.10;;
4198;SDS011;2113;50.946;14.610;2023-12-04T07:56:24;26.20;;;11.00;;
4198;SDS011;2113;50.946;14.610;2023-12-04T07:58:51;28.52;;;13.30;;
4198;SDS011;2113;50.946;14.610;2023-12-04T08:01:19;29.10;;;14.60;;
4198;SDS011;2113;50.946;14.610;2023-12-04T08:03:48;25.83;;;12.30;;
4198;SDS011;2113;50.946;14.610;2023-12-04T08:06:17;26.42;;;13.38;;
4198;SDS011;2113;50.946;14.610;2023-12-04T08:08:45;28.98;;;13.55;;
4198;SDS011;2113;50.946;14.610;2023-12-04T08:11:13;35.67;;;12.15;;
4198;SDS011;2113;50.946;14.610;2023-12-04T08:13:41;21.13;;;10.18;;
4198;SDS011;2113;50.946;14.610;2023-12-04T08:16:12;32.80;;;12.52;;
4198;SDS011;2113;50.946;14.610;2023-12-04T08:18:41;27.63;;;12.95;;
4198;SDS011;2113;50.946;14.610;2023-12-04T08:21:10;26.08;;;13.10;;
4198;SDS011;2113;50.946;14.610;2023-12-04T08:23:40;26.33;;;11.52;;
4198;SDS011;2113;50.946;14.610;2023-12-04T08:26:08;31.27;;;13.43;;
4198;SDS011;2113;50.946;14.610;2023-12-04T08:28:36;26.67;;;10.98;;
4198;SDS011;2113;50.946;14.610;2023-12-04T08:31:08;22.25;;;11.95;;
4198;SDS011;2113;50.946;14.610;2023-12-04T08:33:36;27.30;;;13.18;;
4198;SDS011;2113;50.946;14.610;2023-12-04T08:36:05;30.52;;;13.65;;
4198;SDS011;2113;50.946;14.610;2023-12-04T08:38:33;33.20;;;13.80;;
4198;SDS011;2113;50.946;14.610;2023-12-04T08:41:04;30.10;;;12.25;;
4198;SDS011;2113;50.946;14.610;2023-12-04T08:43:32;35.38;;;14.63;;
4198;SDS011;2113;50.946;14.610;2023-12-04T08:46:00;24.38;;;11.45;;
4198;SDS011;2113;50.946;14.610;2023-12-04T08:48:28;24.00;;;11.18;;
4198;SDS011;2113;50.946;14.610;2023-12-04T08:50:57;31.35;;;12.63;;
4198;SDS011;2113;50.946;14.610;2023-12-04T08:53:25;26.55;;;11.55;;
4198;SDS011;2113;50.946;14.610;2023-12-04T08:55:53;28.63;;;11.65;;
4198;SDS011;2113;50.946;14.610;2023-12-04T08:58:25;25.88;;;11.70;;
4198;SDS011;2113;50.946;14.610;2023-12-04T09:00:54;17.05;;;9.88;;
4198;SDS011;2113;50.946;14.610;2023-12-04T09:03:22;24.35;;;10.30;;
4198;SDS011;2113;50.946;14.610;2023-12-04T09:05:58;26.80;;;13.10;;
4198;SDS011;2113;50.946;14.610;2023-12-04T09:08:26;32.17;;;11.48;;
4198;SDS011;2113;50.946;14.610;2023-12-04T09:11:05;28.75;;;11.88;;
4198;SDS011;2113;50.946;14.610;2023-12-04T09:13:38;22.52;;;10.50;;
4198;SDS011;2113;50.946;14.610;2023-12-04T09:16:06;19.30;;;9.45;;
4198;SDS011;2113;50.946;14.610;2023-12-04T09:18:35;17.25;;;9.75;;
4198;SDS011;2113;50.946;14.610;2023-12-04T09:21:04;19.73;;;9.57;;
4198;SDS011;2113;50.946;14.610;2023-12-04T09:23:32;17.30;;;8.65;;
4198;SDS011;2113;50.946;14.610;2023-12-04T09:26:00;19.95;;;10.63;;
4198;SDS011;2113;50.946;14.610;2023-12-04T09:28:28;22.90;;;9.77;;
4198;SDS011;2113;50.946;14.610;2023-12-04T09:30:58;18.30;;;9.55;;
4198;SDS011;2113;50.946;14.610;2023-12-04T09:33:26;18.17;;;8.32;;
4198;SDS011;2113;50.946;14.610;2023-12-04T09:35:54;14.65;;;8.13;;
4198;SDS011;2113;50.946;14.610;2023-12-04T09:38:22;23.83;;;10.13;;
4198;SDS011;2113;50.946;14.610;2023-12-04T09:40:50;20.70;;;9.10;;
4198;SDS011;2113;50.946;14.610;2023-12-04T09:43:20;23.50;;;9.70;;
4198;SDS011;2113;50.946;14.610;2023-12-04T09:45:49;19.23;;;9.77;;
4198;SDS011;2113;50.946;14.610;2023-12-04T09:48:18;22.80;;;10.48;;
4198;SDS011;2113;50.946;14.610;2023-12-04T09:50:48;19.42;;;9.48;;
4198;SDS011;2113;50.946;14.610;2023-12-04T09:53:16;20.77;;;8.70;;
4198;SDS011;2113;50.946;14.610;2023-12-04T09:55:46;17.23;;;9.13;;
4198;SDS011;2113;50.946;14.610;2023-12-04T09:58:15;23.08;;;9.90;;
4198;SDS011;2113;50.946;14.610;2023-12-04T10:00:47;16.58;;;8.75;;
4198;SDS011;2113;50.946;14.610;2023-12-04T10:03:16;18.45;;;8.40;;
4198;SDS011;2113;50.946;14.610;2023-12-04T10:05:46;17.33;;;8.77;;
4198;SDS011;2113;50.946;14.610;2023-12-04T10:08:14;17.58;;;8.13;;
4198;SDS011;2113;50.946;14.610;2023-12-04T10:10:43;24.20;;;9.23;;
4198;SDS011;2113;50.946;14.610;2023-12-04T10:13:11;17.02;;;8.80;;
4198;SDS011;2113;50.946;14.610;2023-12-04T10:15:59;17.52;;;7.30;;
4198;SDS011;2113;50.946;14.610;2023-12-04T10:18:30;20.00;;;8.90;;
4198;SDS011;2113;50.946;14.610;2023-12-04T10:21:00;18.67;;;7.55;;
4198;SDS011;2113;50.946;14.610;2023-12-04T10:23:36;13.30;;;7.38;;
4198;SDS011;2113;50.946;14.610;2023-12-04T10:26:06;18.40;;;8.68;;
4198;SDS011;2113;50.946;14.610;2023-12-04T10:28:34;16.00;;;7.93;;
4198;SDS011;2113;50.946;14.610;2023-12-04T10:31:03;14.73;;;8.43;;
4198;SDS011;2113;50.946;14.610;2023-12-04T10:33:33;15.50;;;7.20;;
4198;SDS011;2113;50.946;14.610;2023-12-04T10:36:04;14.43;;;7.15;;
4198;SDS011;2113;50.946;14.610;2023-12-04T10:38:39;20.25;;;8.43;;
4198;SDS011;2113;50.946;14.610;2023-12-04T10:41:11;16.15;;;6.95;;
4198;SDS011;2113;50.946;14.610;2023-12-04T10:43:46;14.32;;;6.82;;
4198;SDS011;2113;50.946;14.610;2023-12-04T10:46:26;16.92;;;7.00;;
4198;SDS011;2113;50.946;14.610;2023-12-04T10:48:56;17.85;;;7.82;;
4198;SDS011;2113;50.946;14.610;2023-12-04T10:51:28;13.65;;;6.93;;
4198;SDS011;2113;50.946;14.610;2023-12-04T10:53:56;14.00;;;8.05;;
4198;SDS011;2113;50.946;14.610;2023-12-04T10:56:27;14.95;;;7.57;;
4198;SDS011;2113;50.946;14.610;2023-12-04T10:59:00;16.08;;;8.52;;
4198;SDS011;2113;50.946;14.610;2023-12-04T11:01:29;19.15;;;8.20;;
4198;SDS011;2113;50.946;14.610;2023-12-04T11:03:58;18.27;;;8.15;;
4198;SDS011;2113;50.946;14.610;2023-12-04T11:06:30;15.18;;;7.38;;
4198;SDS011;2113;50.946;14.610;2023-12-04T11:08:58;18.02;;;10.73;;
4198;SDS011;2113;50.946;14.610;2023-12-04T11:11:31;14.20;;;7.20;;
4198;SDS011;2113;50.946;14.610;2023-12-04T11:14:04;16.17;;;8.20;;
4198;SDS011;2113;50.946;14.610;2023-12-04T11:16:34;17.30;;;8.32;;
4198;SDS011;2113;50.946;14.610;2023-12-04T11:19:11;14.70;;;6.45;;
4198;SDS011;2113;50.946;14.610;2023-12-04T11:21:46;13.50;;;7.80;;
4198;SDS011;2113;50.946;14.610;2023-12-04T11:24:16;17.50;;;8.05;;
4198;SDS011;2113;50.946;14.610;2023-12-04T11:26:45;20.90;;;7.88;;
4198;SDS011;2113;50.946;14.610;2023-12-04T11:29:14;14.13;;;6.90;;
4198;SDS011;2113;50.946;14.610;2023-12-04T11:31:43;12.20;;;6.68;;
4198;SDS011;2113;50.946;14.610;2023-12-04T11:34:12;15.27;;;7.07;;
4198;SDS011;2113;50.946;14.610;2023-12-04T11:36:41;10.85;;;5.68;;
4198;SDS011;2113;50.946;14.610;2023-12-04T11:39:12;15.32;;;6.88;;
4198;SDS011;2113;50.946;14.610;2023-12-04T11:41:40;12.60;;;7.28;;
4198;SDS011;2113;50.946;14.610;2023-12-04T11:44:11;16.17;;;6.95;;
4198;SDS011;2113;50.946;14.610;2023-12-04T11:46:54;14.48;;;7.57;;
4198;SDS011;2113;50.946;14.610;2023-12-04T11:49:27;15.23;;;7.80;;
4198;SDS011;2113;50.946;14.610;2023-12-04T11:51:57;18.55;;;8.05;;
4198;SDS011;2113;50.946;14.610;2023-12-04T11:54:27;11.77;;;6.60;;
4198;SDS011;2113;50.946;14.610;2023-12-04T11:56:58;14.85;;;7.55;;
4198;SDS011;2113;50.946;14.610;2023-12-04T11:59:27;17.30;;;8.18;;
4198;SDS011;2113;50.946;14.610;2023-12-04T12:01:55;14.05;;;6.72;;
4198;SDS011;2113;50.946;14.610;2023-12-04T12:04:26;16.17;;;7.30;;
4198;SDS011;2113;50.946;14.610;2023-12-04T12:06:57;12.65;;;7.35;;
4198;SDS011;2113;50.946;14.610;2023-12-04T12:09:30;16.33;;;7.80;;
4198;SDS011;2113;50.946;14.610;2023-12-04T12:12:00;11.75;;;5.80;;
4198;SDS011;2113;50.946;14.610;2023-12-04T12:14:29;15.68;;;7.47;;
4198;SDS011;2113;50.946;14.610;2023-12-04T12:16:58;15.20;;;8.48;;
4198;SDS011;2113;50.946;14.610;2023-12-04T12:19:28;14.02;;;6.82;;
4198;SDS011;2113;50.946;14.610;2023-12-04T12:21:57;12.15;;;7.25;;
4198;SDS011;2113;50.946;14.610;2023-12-04T12:24:25;13.05;;;5.63;;
4198;SDS011;2113;50.946;14.610;2023-12-04T12:26:55;14.43;;;6.97;;
4198;SDS011;2113;50.946;14.610;2023-12-04T12:29:23;15.43;;;6.80;;
4198;SDS011;2113;50.946;14.610;2023-12-04T12:31:52;15.40;;;6.25;;
4198;SDS011;2113;50.946;14.610;2023-12-04T12:34:20;16.40;;;6.00;;
4198;SDS011;2113;50.946;14.610;2023-12-04T12:36:48;10.60;;;5.63;;
4198;SDS011;2113;50.946;14.610;2023-12-04T12:39:16;16.38;;;7.25;;
4198;SDS011;2113;50.946;14.610;2023-12-04T12:41:47;16.15;;;7.07;;
4198;SDS011;2113;50.946;14.610;2023-12-04T12:44:17;12.27;;;7.22;;
4198;SDS011;2113;50.946;14.610;2023-12-04T12:46:47;14.13;;;7.15;;
4198;SDS011;2113;50.946;14.610;2023-12-04T12:49:16;14.98;;;7.38;;
4198;SDS011;2113;50.946;14.610;2023-12-04T12:52:01;16.65;;;7.28;;
4198;SDS011;2113;50.946;14.610;2023-12-04T12:54:31;18.30;;;8.50;;
4198;SDS011;2113;50.946;14.610;2023-12-04T12:57:01;15.30;;;8.20;;
4198;SDS011;2113;50.946;14.610;2023-12-04T12:59:31;20.30;;;7.15;;
4198;SDS011;2113;50.946;14.610;2023-12-04T13:01:59;18.15;;;8.90;;
4198;SDS011;2113;50.946;14.610;2023-12-04T13:04:33;22.08;;;9.52;;
4198;SDS011;2113;50.946;14.610;2023-12-04T13:07:03;19.00;;;7.97;;
4198;SDS011;2113;50.946;14.610;2023-12-04T13:09:33;16.73;;;8.50;;
4198;SDS011;2113;50.946;14.610;2023-12-04T13:12:03;21.67;;;8.02;;
4198;SDS011;2113;50.946;14.610;2023-12-04T13:14:34;12.82;;;7.90;;
4198;SDS011;2113;50.946;14.610;2023-12-04T13:17:04;14.18;;;6.53;;
4198;SDS011;2113;50.946;14.610;2023-12-04T13:19:33;15.10;;;8.00;;
4198;SDS011;2113;50.946;14.610;2023-12-04T13:22:03;14.93;;;7.15;;
4198;SDS011;2113;50.946;14.610;2023-12-04T13:24:31;13.23;;;6.53;;
4198;SDS011;2113;50.946;14.610;2023-12-04T13:26:59;17.45;;;8.45;;
4198;SDS011;2113;50.946;14.610;2023-12-04T13:29:27;15.27;;;7.97;;
4198;SDS011;2113;50.946;14.610;2023-12-04T13:31:57;15.82;;;7.70;;
4198;SDS011;2113;50.946;14.610;2023-12-04T13:34:26;14.30;;;7.78;;
4198;SDS011;2113;50.946;14.610;2023-12-04T13:36:55;12.07;;;7.07;;
4198;SDS011;2113;50.946;14.610;2023-12-04T13:39:24;27.45;;;8.10;;
4198;SDS011;2113;50.946;14.610;2023-12-04T13:42:05;13.60;;;5.70;;
4198;SDS011;2113;50.946;14.610;2023-12-04T13:44:51;19.08;;;8.40;;
4198;SDS011;2113;50.946;14.610;2023-12-04T13:47:21;14.35;;;6.57;;
4198;SDS011;2113;50.946;14.610;2023-12-04T13:49:49;13.95;;;6.60;;
4198;SDS011;2113;50.946;14.610;2023-12-04T13:52:17;10.43;;;4.85;;
4198;SDS011;2113;50.946;14.610;2023-12-04T13:54:49;12.55;;;6.40;;
4198;SDS011;2113;50.946;14.610;2023-12-04T13:57:20;16.35;;;6.93;;
4198;SDS011;2113;50.946;14.610;2023-12-04T13:59:52;18.08;;;6.70;;
4198;SDS011;2113;50.946;14.610;2023-12-04T14:02:21;11.90;;;6.47;;
4198;SDS011;2113;50.946;14.610;2023-12-04T14:04:51;14.38;;;6.40;;
4198;SDS011;2113;50.946;14.610;2023-12-04T14:07:20;15.48;;;7.43;;
4198;SDS011;2113;50.946;14.610;2023-12-04T14:09:48;13.43;;;6.10;;
4198;SDS011;2113;50.946;14.610;2023-12-04T14:12:17;11.38;;;5.93;;
4198;SDS011;2113;50.946;14.610;2023-12-04T14:14:45;15.02;;;6.50;;
4198;SDS011;2113;50.946;14.610;2023-12-04T14:17:13;13.88;;;6.75;;
4198;SDS011;2113;50.946;14.610;2023-12-04T14:19:43;16.13;;;7.07;;
4198;SDS011;2113;50.946;14.610;2023-12-04T14:22:11;12.30;;;5.85;;
4198;SDS011;2113;50.946;14.610;2023-12-04T14:24:39;14.45;;;7.00;;
4198;SDS011;2113;50.946;14.610;2023-12-04T14:27:08;14.50;;;7.20;;
4198;SDS011;2113;50.946;14.610;2023-12-04T14:29:36;15.05;;;6.50;;
4198;SDS011;2113;50.946;14.610;2023-12-04T14:32:04;13.55;;;5.85;;
4198;SDS011;2113;50.946;14.610;2023-12-04T14:34:32;13.15;;;6.05;;
4198;SDS011;2113;50.946;14.610;2023-12-04T14:37:02;15.23;;;5.85;;
4198;SDS011;2113;50.946;14.610;2023-12-04T14:39:31;12.82;;;6.80;;
4198;SDS011;2113;50.946;14.610;2023-12-04T14:41:59;15.05;;;6.45;;
4198;SDS011;2113;50.946;14.610;2023-12-04T14:44:27;11.45;;;6.63;;
4198;SDS011;2113;50.946;14.610;2023-12-04T14:46:55;19.58;;;7.80;;
4198;SDS011;2113;50.946;14.610;2023-12-04T14:49:23;13.73;;;6.47;;
4198;SDS011;2113;50.946;14.610;2023-12-04T14:51:52;15.20;;;6.72;;
4198;SDS011;2113;50.946;14.610;2023-12-04T14:54:21;15.77;;;6.82;;
4198;SDS011;2113;50.946;14.610;2023-12-04T14:57:04;13.65;;;5.90;;
4198;SDS011;2113;50.946;14.610;2023-12-04T14:59:49;13.77;;;5.72;;
4198;SDS011;2113;50.946;14.610;2023-12-04T15:02:40;12.73;;;5.78;;